Time;durP1;ratioP1;P1;durP2;ratioP2;P2;SDS_P1;SDS_P2;PMS_P1;PMS_P2;Temp;Humidity;BMP_temperature;BMP_pressure;BME280_temperature;BME280_humidity;BME280_pressure;Samples;Min_cycle;Max_cycle;Signal;HPM_P1;HPM_P2
2021/10/30 00:02:17;;;;;;;;;24.33;23.00;;;;;;;;6225251;22;45996;-81
2021/10/30 00:04:42;;;;;;;;;28.33;24.00;;;;;;;;6173247;22;45554;-81
2021/10/30 00:07:07;;;;;;;;;30.00;26.00;;;;;;;;6224972;22;45590;-81
2021/10/30 00:09:33;;;;;;;;;28.33;26.00;;;;;;;;6223992;22;45380;-81
2021/10/30 00:11:58;;;;;;;;;23.00;23.00;;;;;;;;6197428;22;46723;-81
2021/10/30 00:14:23;;;;;;;;;28.33;25.67;;;;;;;;6220996;22;44791;-81
2021/10/30 00:16:49;;;;;;;;;26.00;23.00;;;;;;;;6224742;22;45258;-82
2021/10/30 00:19:14;;;;;;;;;24.33;23.33;;;;;;;;6225179;22;45436;-82
2021/10/30 00:21:39;;;;;;;;;21.00;19.33;;;;;;;;6224441;22;45293;-81
2021/10/30 00:24:04;;;;;;;;;25.33;23.67;;;;;;;;6195519;22;45373;-81
2021/10/30 00:26:30;;;;;;;;;25.67;23.67;;;;;;;;6195831;22;45365;-81
2021/10/30 00:28:55;;;;;;;;;26.00;25.00;;;;;;;;6198279;22;45403;-82
2021/10/30 00:31:21;;;;;;;;;21.33;21.33;;;;;;;;6193942;22;44955;-82
2021/10/30 00:33:48;;;;;;;;;23.33;20.00;;;;;;;;6167401;22;45427;-82
2021/10/30 00:39:17;;;;;;;;;19.33;18.33;;;;;;;;6194826;22;44853;-83
2021/10/30 00:41:56;;;;;;;;;16.33;14.00;;;;;;;;6197132;22;45378;-82
2021/10/30 00:44:31;;;;;;;;;23.00;20.00;;;;;;;;6169474;22;45417;-82
2021/10/30 00:46:56;;;;;;;;;24.33;22.00;;;;;;;;6168687;22;45356;-82
2021/10/30 00:49:24;;;;;;;;;24.00;24.00;;;;;;;;6194741;22;45307;-82
2021/10/30 00:52:10;;;;;;;;;21.00;21.00;;;;;;;;6194520;22;45406;-82
2021/10/30 00:54:37;;;;;;;;;21.67;19.67;;;;;;;;6190554;22;45390;-82
2021/10/30 00:57:03;;;;;;;;;20.00;20.00;;;;;;;;6193820;22;45463;-82
2021/10/30 00:59:28;;;;;;;;;19.00;17.33;;;;;;;;6194049;22;44828;-82
2021/10/30 01:01:53;;;;;;;;;21.00;16.33;;;;;;;;6165707;22;46664;-82
2021/10/30 01:04:33;;;;;;;;;;;;;;;;;;;;;
2021/10/30 01:06:59;;;;;;;;;15.67;15.67;;;;;;;;6190353;22;67958;-82
2021/10/30 01:09:27;;;;;;;;;16.00;16.00;;;;;;;;6190400;22;45439;-82
2021/10/30 01:11:55;;;;;;;;;18.33;17.67;;;;;;;;6193688;22;45934;-82
2021/10/30 01:14:21;;;;;;;;;21.67;20.00;;;;;;;;6166834;23;45422;-82
2021/10/30 01:16:59;;;;;;;;;19.67;17.33;;;;;;;;6190075;22;44745;-82
2021/10/30 01:19:31;;;;;;;;;18.00;17.67;;;;;;;;6166700;23;45533;-82
2021/10/30 01:22:00;;;;;;;;;21.00;18.67;;;;;;;;6192420;22;46587;-82
2021/10/30 01:24:31;;;;;;;;;15.33;14.00;;;;;;;;6191785;22;45364;-82
2021/10/30 01:26:56;;;;;;;;;17.00;17.00;;;;;;;;6192506;22;44730;-82
2021/10/30 01:29:22;;;;;;;;;18.33;18.00;;;;;;;;6192934;23;45320;-82
2021/10/30 01:31:49;;;;;;;;;21.33;17.33;;;;;;;;6191218;22;46621;-83
2021/10/30 01:34:14;;;;;;;;;10.33;10.33;;;;;;;;6191685;23;45380;-82
2021/10/30 01:36:41;;;;;;;;;16.67;16.67;;;;;;;;6190711;22;45414;-82
2021/10/30 01:39:08;;;;;;;;;19.00;16.00;;;;;;;;6191091;22;45377;-82
2021/10/30 01:41:35;;;;;;;;;17.33;15.67;;;;;;;;6164924;22;45662;-82
2021/10/30 01:44:03;;;;;;;;;18.33;15.33;;;;;;;;6162500;23;45332;-83
2021/10/30 01:46:28;;;;;;;;;16.00;16.00;;;;;;;;6189078;23;45269;-83
2021/10/30 01:48:54;;;;;;;;;18.33;16.33;;;;;;;;6189899;23;45374;-82
2021/10/30 01:51:20;;;;;;;;;18.00;16.00;;;;;;;;6165565;23;46913;-82
2021/10/30 01:53:46;;;;;;;;;16.00;15.00;;;;;;;;6192644;22;45408;-82
2021/10/30 01:56:12;;;;;;;;;17.00;16.33;;;;;;;;6193877;23;45665;-83
2021/10/30 01:58:37;;;;;;;;;21.00;18.67;;;;;;;;6192023;22;45723;-82
2021/10/30 02:01:03;;;;;;;;;16.33;14.67;;;;;;;;6192736;22;45348;-82
2021/10/30 02:03:30;;;;;;;;;16.00;16.00;;;;;;;;6190993;22;45331;-82
2021/10/30 02:05:56;;;;;;;;;14.67;14.67;;;;;;;;6166458;23;45276;-83
2021/10/30 02:08:21;;;;;;;;;12.33;12.33;;;;;;;;6166771;23;45534;-82
2021/10/30 02:10:47;;;;;;;;;16.33;16.00;;;;;;;;6192034;22;45370;-82
2021/10/30 02:13:12;;;;;;;;;17.67;17.67;;;;;;;;6193829;22;45657;-82
2021/10/30 02:15:38;;;;;;;;;18.00;18.00;;;;;;;;6192040;23;45343;-82
2021/10/30 02:18:04;;;;;;;;;17.67;14.33;;;;;;;;6193627;23;45357;-82
2021/10/30 02:20:30;;;;;;;;;14.33;11.67;;;;;;;;6166210;22;45639;-82
2021/10/30 02:22:56;;;;;;;;;21.67;16.67;;;;;;;;6167726;23;45400;-83
2021/10/30 02:25:21;;;;;;;;;15.33;15.33;;;;;;;;6195790;22;45376;-83
2021/10/30 02:27:47;;;;;;;;;12.33;12.33;;;;;;;;6191376;23;45412;-82
2021/10/30 02:30:13;;;;;;;;;14.67;13.33;;;;;;;;6190400;22;46884;-82
2021/10/30 02:32:38;;;;;;;;;13.33;13.33;;;;;;;;6167587;23;45180;-83
2021/10/30 02:35:06;;;;;;;;;16.33;16.33;;;;;;;;6195081;23;45481;-82
2021/10/30 02:40:34;;;;;;;;;17.67;16.33;;;;;;;;6191640;23;45269;-82
2021/10/30 02:42:59;;;;;;;;;12.00;10.67;;;;;;;;6193639;23;45332;-82
2021/10/30 02:45:25;;;;;;;;;15.00;15.00;;;;;;;;6166405;23;45409;-82
2021/10/30 02:47:50;;;;;;;;;17.00;17.00;;;;;;;;6165707;22;45537;-82
2021/10/30 02:50:16;;;;;;;;;19.67;18.00;;;;;;;;6167065;23;46837;-82
2021/10/30 02:52:41;;;;;;;;;21.00;18.67;;;;;;;;6165564;22;45346;-82
2021/10/30 02:55:07;;;;;;;;;22.67;20.00;;;;;;;;6165459;22;45503;-82
2021/10/30 02:57:32;;;;;;;;;16.00;16.00;;;;;;;;6166728;22;45461;-83
2021/10/30 02:59:57;;;;;;;;;17.33;16.00;;;;;;;;6192643;22;46058;-82
2021/10/30 03:02:24;;;;;;;;;16.33;16.33;;;;;;;;6191357;22;45379;-82
2021/10/30 03:04:49;;;;;;;;;17.67;15.00;;;;;;;;6165854;22;45470;-82
2021/10/30 03:07:14;;;;;;;;;17.33;16.00;;;;;;;;6164404;23;45437;-83
2021/10/30 03:09:40;;;;;;;;;22.33;20.67;;;;;;;;6190110;23;45826;-82
2021/10/30 03:12:05;;;;;;;;;16.67;16.67;;;;;;;;6190731;22;45367;-81
2021/10/30 03:14:32;;;;;;;;;20.33;15.67;;;;;;;;6194049;22;45351;-82
2021/10/30 03:17:04;;;;;;;;;14.00;14.00;;;;;;;;6166666;22;45522;-81
2021/10/30 03:19:29;;;;;;;;;18.67;16.67;;;;;;;;6166277;22;46972;-82
2021/10/30 03:21:54;;;;;;;;;18.00;16.00;;;;;;;;6191548;23;45477;-82
2021/10/30 03:24:22;;;;;;;;;19.00;16.33;;;;;;;;6192138;23;45357;-82
2021/10/30 03:26:49;;;;;;;;;12.00;12.00;;;;;;;;6192941;22;45406;-82
2021/10/30 03:29:14;;;;;;;;;17.67;17.00;;;;;;;;6193675;22;45621;-82
2021/10/30 03:31:39;;;;;;;;;19.00;19.00;;;;;;;;6166983;23;45637;-81
2021/10/30 03:34:05;;;;;;;;;18.33;18.33;;;;;;;;6165874;23;45663;-82
2021/10/30 03:36:32;;;;;;;;;22.33;17.67;;;;;;;;6192494;23;45279;-82
2021/10/30 03:38:58;;;;;;;;;19.67;18.67;;;;;;;;6165320;22;47527;-82
2021/10/30 03:41:23;;;;;;;;;18.00;15.67;;;;;;;;6192849;22;45378;-82
2021/10/30 03:43:49;;;;;;;;;16.33;16.33;;;;;;;;6165696;23;45236;-82
2021/10/30 03:46:14;;;;;;;;;16.33;16.33;;;;;;;;6191527;23;44778;-82
2021/10/30 03:48:39;;;;;;;;;13.67;12.67;;;;;;;;6190155;22;46988;-82
2021/10/30 03:51:09;;;;;;;;;17.33;17.33;;;;;;;;6165891;23;44785;-82
2021/10/30 03:53:35;;;;;;;;;16.33;16.33;;;;;;;;6194296;22;45399;-81
2021/10/30 03:56:00;;;;;;;;;17.67;15.33;;;;;;;;6165498;23;45376;-82
2021/10/30 03:58:25;;;;;;;;;15.33;15.33;;;;;;;;6193298;22;45354;-82
2021/10/30 04:00:50;;;;;;;;;16.00;16.00;;;;;;;;6194792;23;45230;-82
2021/10/30 04:03:16;;;;;;;;;12.00;8.00;;;;;;;;6193485;22;44738;-82
2021/10/30 04:05:44;;;;;;;;;15.67;14.33;;;;;;;;6166612;23;45395;-82
2021/10/30 04:08:13;;;;;;;;;17.33;17.33;;;;;;;;6192728;22;45422;-81
2021/10/30 04:10:39;;;;;;;;;17.33;17.33;;;;;;;;6165183;23;45350;-81
2021/10/30 04:13:07;;;;;;;;;12.67;12.00;;;;;;;;6168222;22;45197;-81
2021/10/30 04:15:32;;;;;;;;;20.00;16.67;;;;;;;;6194869;22;45288;-81
2021/10/30 04:17:57;;;;;;;;;18.00;16.33;;;;;;;;6168526;23;46502;-81
2021/10/30 04:20:23;;;;;;;;;18.00;15.33;;;;;;;;6194066;23;45255;-82
2021/10/30 04:22:48;;;;;;;;;17.00;16.00;;;;;;;;6166098;23;45619;-82
2021/10/30 04:25:13;;;;;;;;;20.67;14.00;;;;;;;;6195466;23;45443;-81
2021/10/30 04:30:42;;;;;;;;;19.33;16.67;;;;;;;;6193436;22;45239;-82
2021/10/30 04:33:12;;;;;;;;;20.67;19.33;;;;;;;;6195145;22;45242;-82
2021/10/30 04:35:40;;;;;;;;;12.00;11.67;;;;;;;;6169289;23;45419;-82
2021/10/30 04:38:05;;;;;;;;;10.33;10.33;;;;;;;;6165646;23;48038;-82
2021/10/30 04:40:31;;;;;;;;;15.00;14.33;;;;;;;;6166102;23;44805;-82
2021/10/30 04:42:56;;;;;;;;;13.33;13.33;;;;;;;;6190411;22;45059;-82
2021/10/30 04:45:22;;;;;;;;;16.33;13.33;;;;;;;;6188330;23;45165;-82
2021/10/30 04:47:47;;;;;;;;;18.00;14.33;;;;;;;;6191988;22;45204;-82
2021/10/30 04:50:13;;;;;;;;;15.67;12.33;;;;;;;;6191134;22;45360;-81
2021/10/30 04:52:40;;;;;;;;;13.33;13.33;;;;;;;;6164515;23;45799;-82
2021/10/30 04:55:06;;;;;;;;;14.33;13.00;;;;;;;;6192200;22;44690;-82
2021/10/30 04:57:31;;;;;;;;;13.00;12.00;;;;;;;;6165005;22;47131;-82
2021/10/30 04:59:56;;;;;;;;;14.33;13.00;;;;;;;;6191895;22;45438;-82
2021/10/30 05:02:21;;;;;;;;;13.67;13.00;;;;;;;;6163846;23;45701;-82
2021/10/30 05:04:46;;;;;;;;;15.00;12.33;;;;;;;;6188259;22;45292;-82
2021/10/30 05:07:19;;;;;;;;;11.33;11.33;;;;;;;;6192568;22;45594;-83
2021/10/30 05:09:44;;;;;;;;;11.33;11.00;;;;;;;;6166022;23;45449;-83
2021/10/30 05:12:10;;;;;;;;;13.00;13.00;;;;;;;;6194350;22;45390;-83
2021/10/30 05:14:36;;;;;;;;;12.00;11.33;;;;;;;;6166373;23;45396;-83
2021/10/30 05:17:02;;;;;;;;;12.00;11.33;;;;;;;;6167198;23;47039;-83
2021/10/30 05:19:27;;;;;;;;;11.33;11.33;;;;;;;;6167673;23;45502;-83
2021/10/30 05:21:52;;;;;;;;;11.33;11.33;;;;;;;;6194137;22;45438;-83
2021/10/30 05:24:18;;;;;;;;;12.33;9.00;;;;;;;;6166209;23;44822;-82
2021/10/30 05:26:43;;;;;;;;;11.33;11.33;;;;;;;;6167365;23;46360;-83
2021/10/30 05:29:08;;;;;;;;;9.33;8.67;;;;;;;;6193336;22;45267;-83
2021/10/30 05:31:38;;;;;;;;;9.33;7.67;;;;;;;;6167238;23;45304;-83
2021/10/30 05:34:05;;;;;;;;;13.00;13.00;;;;;;;;6168497;23;44870;-82
2021/10/30 05:36:36;;;;;;;;;12.00;12.00;;;;;;;;6168169;23;47114;-83
2021/10/30 05:39:04;;;;;;;;;13.33;13.33;;;;;;;;6167790;23;45261;-83
2021/10/30 05:41:30;;;;;;;;;11.33;11.33;;;;;;;;6193461;22;45267;-83
2021/10/30 05:43:55;;;;;;;;;11.67;11.00;;;;;;;;6169338;23;45483;-83
2021/10/30 05:46:20;;;;;;;;;11.00;11.00;;;;;;;;6194949;22;46277;-83
2021/10/30 05:48:53;;;;;;;;;11.33;11.33;;;;;;;;6195269;23;45688;-83
2021/10/30 05:51:19;;;;;;;;;9.67;9.67;;;;;;;;6193250;23;45461;-83
2021/10/30 05:53:46;;;;;;;;;11.00;11.00;;;;;;;;6167806;23;45419;-83
2021/10/30 05:56:19;;;;;;;;;11.00;11.00;;;;;;;;6195767;22;45630;-83
2021/10/30 05:58:45;;;;;;;;;9.00;9.00;;;;;;;;6193535;23;45821;-83
2021/10/30 06:01:10;;;;;;;;;8.33;8.00;;;;;;;;6167970;23;44760;-83
2021/10/30 06:03:35;;;;;;;;;8.00;8.00;;;;;;;;6168844;23;44818;-83
2021/10/30 06:06:00;;;;;;;;;12.00;11.00;;;;;;;;6192532;22;47788;-83
2021/10/30 06:08:26;;;;;;;;;13.00;12.00;;;;;;;;6166783;22;45421;-83
2021/10/30 06:10:53;;;;;;;;;11.33;9.33;;;;;;;;6192513;22;44771;-83
2021/10/30 06:13:18;;;;;;;;;9.33;9.33;;;;;;;;6191965;22;44832;-83
2021/10/30 06:15:44;;;;;;;;;12.00;10.33;;;;;;;;6166685;23;48005;-83
2021/10/30 06:18:09;;;;;;;;;10.00;10.00;;;;;;;;6165931;23;45285;-83
2021/10/30 06:20:34;;;;;;;;;9.33;9.33;;;;;;;;6193726;22;45362;-83
2021/10/30 06:23:01;;;;;;;;;10.33;10.33;;;;;;;;6196606;23;45422;-83
2021/10/30 06:25:38;;;;;;;;;10.00;10.00;;;;;;;;6196716;22;45380;-83
2021/10/30 06:28:09;;;;;;;;;8.00;8.00;;;;;;;;6195417;22;45472;-83
2021/10/30 06:30:40;;;;;;;;;7.67;7.67;;;;;;;;6196042;23;44692;-83
2021/10/30 06:33:05;;;;;;;;;10.33;10.00;;;;;;;;6196364;23;45442;-83
2021/10/30 06:35:31;;;;;;;;;13.33;9.67;;;;;;;;6193353;22;45363;-83
2021/10/30 06:37:57;;;;;;;;;10.33;10.33;;;;;;;;6194503;22;45366;-81
2021/10/30 06:40:46;;;;;;;;;11.00;11.00;;;;;;;;6168554;23;45434;-83
2021/10/30 06:47:17;;;;;;;;;;;;;;;;;;;;;
2021/10/30 06:49:40;;;;;;;;;17.00;15.00;;;;;;;;6184853;23;45309;-81
2021/10/30 06:52:08;;;;;;;;;11.33;11.33;;;;;;;;6195820;22;45399;-81
2021/10/30 06:54:34;;;;;;;;;11.67;11.67;;;;;;;;6195368;22;45533;-81
2021/10/30 06:56:59;;;;;;;;;12.67;12.67;;;;;;;;6168182;23;48245;-81
2021/10/30 06:59:24;;;;;;;;;11.67;9.67;;;;;;;;6166828;23;45382;-82
2021/10/30 07:01:58;;;;;;;;;12.00;11.67;;;;;;;;6193368;22;45301;-81
2021/10/30 07:04:30;;;;;;;;;11.67;10.00;;;;;;;;6192969;22;45396;-81
2021/10/30 07:07:36;;;;;;;;;9.67;9.67;;;;;;;;6195567;22;45360;-81
2021/10/30 07:10:06;;;;;;;;;6.67;6.67;;;;;;;;6191238;22;44912;-83
2021/10/30 07:15:29;;;;;;;;;9.67;9.67;;;;;;;;6194269;22;45383;-81
2021/10/30 07:20:57;;;;;;;;;8.33;8.00;;;;;;;;6193421;22;44781;-82
2021/10/30 07:23:23;;;;;;;;;7.33;7.00;;;;;;;;6166484;23;45335;-81
2021/10/30 07:25:48;;;;;;;;;8.33;8.33;;;;;;;;6194342;22;44873;-82
2021/10/30 07:28:14;;;;;;;;;8.67;8.67;;;;;;;;6191619;22;47257;-82
2021/10/30 07:30:39;;;;;;;;;7.00;7.00;;;;;;;;6167679;23;44742;-82
2021/10/30 07:33:04;;;;;;;;;8.33;7.33;;;;;;;;6169958;23;44746;-81
2021/10/30 07:35:30;;;;;;;;;5.67;5.67;;;;;;;;6169089;23;45494;-81
2021/10/30 07:38:00;;;;;;;;;7.00;7.00;;;;;;;;6167362;23;48198;-81
2021/10/30 07:40:26;;;;;;;;;6.67;6.67;;;;;;;;6191912;22;45422;-81
2021/10/30 07:42:53;;;;;;;;;9.67;9.67;;;;;;;;6194134;23;45364;-82
2021/10/30 07:45:20;;;;;;;;;6.00;6.00;;;;;;;;6166350;23;45331;-81
2021/10/30 07:47:48;;;;;;;;;11.00;8.33;;;;;;;;6194154;22;46615;-81
2021/10/30 07:50:13;;;;;;;;;13.33;10.67;;;;;;;;6193884;22;45649;-80
2021/10/30 07:52:39;;;;;;;;;10.33;10.33;;;;;;;;6165273;23;45847;-82
2021/10/30 07:55:07;;;;;;;;;8.33;8.33;;;;;;;;6193957;22;45267;-82
2021/10/30 07:57:32;;;;;;;;;8.00;8.00;;;;;;;;6190868;22;47481;-82
2021/10/30 07:59:57;;;;;;;;;5.00;5.00;;;;;;;;6193134;22;45447;-82
2021/10/30 08:02:24;;;;;;;;;10.00;9.00;;;;;;;;6192635;22;45291;-82
2021/10/30 08:04:49;;;;;;;;;8.00;8.00;;;;;;;;6165838;23;45295;-82
2021/10/30 08:07:14;;;;;;;;;7.00;7.00;;;;;;;;6192468;23;46537;-82
2021/10/30 08:09:43;;;;;;;;;9.00;9.00;;;;;;;;6191252;22;45737;-82
2021/10/30 08:12:09;;;;;;;;;8.33;8.00;;;;;;;;6191434;22;44684;-82
2021/10/30 08:14:34;;;;;;;;;7.00;7.00;;;;;;;;6189470;22;44884;-82
2021/10/30 08:17:00;;;;;;;;;7.33;7.33;;;;;;;;6164870;23;45523;-82
2021/10/30 08:19:26;;;;;;;;;9.67;9.67;;;;;;;;6192743;23;45351;-82
2021/10/30 08:21:51;;;;;;;;;13.00;10.67;;;;;;;;6194134;22;45401;-82
2021/10/30 08:24:16;;;;;;;;;9.67;9.67;;;;;;;;6193280;22;45333;-81
2021/10/30 08:26:42;;;;;;;;;8.00;8.00;;;;;;;;6192178;23;45429;-81
2021/10/30 08:29:10;;;;;;;;;15.33;13.33;;;;;;;;6164783;23;45343;-83
2021/10/30 08:31:37;;;;;;;;;6.00;6.00;;;;;;;;6192604;23;45339;-82
2021/10/30 08:34:02;;;;;;;;;10.33;10.33;;;;;;;;6194541;23;45079;-81
2021/10/30 08:36:28;;;;;;;;;12.33;12.33;;;;;;;;6191739;22;45024;-81
2021/10/30 08:38:53;;;;;;;;;15.33;13.00;;;;;;;;6193234;23;45348;-82
2021/10/30 08:41:19;;;;;;;;;12.33;10.67;;;;;;;;6194119;22;44846;-82
2021/10/30 08:43:44;;;;;;;;;12.00;10.67;;;;;;;;6167064;23;45327;-82
2021/10/30 08:46:09;;;;;;;;;12.00;8.67;;;;;;;;6193406;23;45120;-82
2021/10/30 08:48:35;;;;;;;;;6.67;4.33;;;;;;;;6194982;22;44793;-82
2021/10/30 08:51:02;;;;;;;;;9.00;8.00;;;;;;;;6192192;23;45712;-82
2021/10/30 08:53:28;;;;;;;;;10.33;9.67;;;;;;;;6193468;22;45388;-82
2021/10/30 08:55:53;;;;;;;;;8.67;8.00;;;;;;;;6191400;22;46557;-82
2021/10/30 08:58:20;;;;;;;;;9.00;8.00;;;;;;;;6189117;22;45366;-82
2021/10/30 09:00:48;;;;;;;;;6.67;6.67;;;;;;;;6191295;23;45372;-80
2021/10/30 09:03:14;;;;;;;;;6.67;6.33;;;;;;;;6194224;22;45357;-82
2021/10/30 09:05:44;;;;;;;;;8.67;6.67;;;;;;;;6196062;22;45477;-87
2021/10/30 09:08:10;;;;;;;;;11.67;8.00;;;;;;;;6193878;22;44715;-81
2021/10/30 09:10:40;;;;;;;;;7.67;7.67;;;;;;;;6191649;23;45270;-83
2021/10/30 09:13:09;;;;;;;;;9.00;9.00;;;;;;;;6193830;23;45324;-82
2021/10/30 09:15:36;;;;;;;;;8.00;8.00;;;;;;;;6193731;23;45791;-82
2021/10/30 09:18:08;;;;;;;;;7.67;7.67;;;;;;;;6191704;22;45296;-83
2021/10/30 09:20:35;;;;;;;;;7.00;7.00;;;;;;;;6195335;23;45367;-82
2021/10/30 09:23:00;;;;;;;;;6.00;6.00;;;;;;;;6191233;23;45355;-82
2021/10/30 09:25:25;;;;;;;;;5.33;5.33;;;;;;;;6193600;23;45280;-82
2021/10/30 09:27:50;;;;;;;;;6.33;5.33;;;;;;;;6165588;23;44731;-82
2021/10/30 09:30:17;;;;;;;;;6.00;5.00;;;;;;;;6193677;23;45380;-82
2021/10/30 09:32:49;;;;;;;;;5.00;5.00;;;;;;;;6191537;23;45251;-82
2021/10/30 09:35:20;;;;;;;;;3.00;2.33;;;;;;;;6191128;23;45408;-82
2021/10/30 09:37:45;;;;;;;;;4.33;4.33;;;;;;;;6191491;22;45361;-82
2021/10/30 09:40:30;;;;;;;;;3.00;3.00;;;;;;;;6167656;23;45306;-82
2021/10/30 09:43:10;;;;;;;;;3.00;3.00;;;;;;;;6190720;22;45394;-82
2021/10/30 09:45:43;;;;;;;;;3.33;3.33;;;;;;;;6189946;23;47220;-83
2021/10/30 09:48:09;;;;;;;;;1.25;1.25;;;;;;;;6189701;23;45451;-83
2021/10/30 09:50:35;;;;;;;;;3.33;3.33;;;;;;;;6192326;22;45312;-83
2021/10/30 09:53:23;;;;;;;;;4.00;2.75;;;;;;;;6168900;23;45348;-82
2021/10/30 09:55:54;;;;;;;;;3.00;1.00;;;;;;;;6172828;22;47031;-82
2021/10/30 09:58:30;;;;;;;;;3.75;2.75;;;;;;;;6192325;22;45726;-82
2021/10/30 10:01:01;;;;;;;;;4.67;4.67;;;;;;;;6192724;23;45295;-83
2021/10/30 10:03:29;;;;;;;;;5.75;2.75;;;;;;;;6191745;22;45458;-82
2021/10/30 10:05:55;;;;;;;;;3.00;3.00;;;;;;;;6192039;23;46904;-82
2021/10/30 10:08:23;;;;;;;;;3.67;3.67;;;;;;;;6193092;22;45354;-82
2021/10/30 10:10:49;;;;;;;;;5.00;5.00;;;;;;;;6190765;22;45826;-82
2021/10/30 10:13:15;;;;;;;;;8.33;8.00;;;;;;;;6192853;22;45428;-82
2021/10/30 10:15:41;;;;;;;;;6.00;6.00;;;;;;;;6190597;22;47301;-82
2021/10/30 10:18:06;;;;;;;;;5.33;5.00;;;;;;;;6190075;23;45413;-82
2021/10/30 10:20:39;;;;;;;;;4.00;4.00;;;;;;;;6164972;23;45380;-82
2021/10/30 10:26:09;;;;;;;;;2.67;2.67;;;;;;;;6194087;22;45681;-82
2021/10/30 10:28:37;;;;;;;;;4.00;4.00;;;;;;;;6192260;23;45368;-83
2021/10/30 10:31:02;;;;;;;;;3.50;3.50;;;;;;;;6191880;22;45497;-82
2021/10/30 10:33:29;;;;;;;;;4.00;4.00;;;;;;;;6191595;22;45374;-82
2021/10/30 10:36:12;;;;;;;;;4.00;4.00;;;;;;;;6194869;23;45379;-82
2021/10/30 10:38:56;;;;;;;;;6.00;6.00;;;;;;;;6167662;23;45371;-82
2021/10/30 10:41:37;;;;;;;;;4.50;4.50;;;;;;;;6165776;23;45668;-82
2021/10/30 10:44:09;;;;;;;;;8.25;5.25;;;;;;;;6193314;23;45241;-83
2021/10/30 10:46:47;;;;;;;;;7.25;6.00;;;;;;;;6191884;23;46988;-82
2021/10/30 10:49:27;;;;;;;;;5.75;5.75;;;;;;;;6192998;22;45315;-82
2021/10/30 10:52:15;;;;;;;;;6.00;4.75;;;;;;;;6192208;22;44800;-82
2021/10/30 10:54:56;;;;;;;;;4.75;4.75;;;;;;;;6189750;23;45313;-82
2021/10/30 11:00:25;;;;;;;;;3.00;3.00;;;;;;;;6191842;23;45723;-83
2021/10/30 11:02:51;;;;;;;;;3.25;3.25;;;;;;;;6193507;23;45222;-83
2021/10/30 11:05:21;;;;;;;;;3.75;3.75;;;;;;;;6163205;23;45306;-83
2021/10/30 11:07:49;;;;;;;;;4.00;4.00;;;;;;;;6193418;23;45505;-83
2021/10/30 11:10:20;;;;;;;;;5.33;5.33;;;;;;;;6165197;23;45336;-80
2021/10/30 11:13:05;;;;;;;;;4.00;4.00;;;;;;;;6192403;22;45379;-83
2021/10/30 11:15:30;;;;;;;;;4.00;4.00;;;;;;;;6194832;22;45244;-81
2021/10/30 11:20:39;;;;;;;;;5.00;5.00;;;;;;;;6190679;22;45430;-81
2021/10/30 11:23:08;;;;;;;;;4.67;4.67;;;;;;;;6194367;22;44883;-82
2021/10/30 11:25:36;;;;;;;;;3.00;3.00;;;;;;;;6191300;22;45279;-81
2021/10/30 11:28:02;;;;;;;;;3.67;3.67;;;;;;;;6189848;22;47167;-82
2021/10/30 11:30:30;;;;;;;;;3.00;3.00;;;;;;;;6188680;22;45279;-82
2021/10/30 11:33:14;;;;;;;;;4.00;4.00;;;;;;;;6165963;23;45395;-83
2021/10/30 11:35:54;;;;;;;;;4.67;4.67;;;;;;;;6194053;22;45669;-82
2021/10/30 11:38:19;;;;;;;;;6.00;4.33;;;;;;;;6191394;23;48055;-82
2021/10/30 11:41:17;;;;;;;;;3.00;3.00;;;;;;;;6194029;22;45616;-82
2021/10/30 11:43:44;;;;;;;;;3.67;3.67;;;;;;;;6164366;22;45389;-82
2021/10/30 11:46:11;;;;;;;;;4.00;4.00;;;;;;;;6192356;22;45454;-82
2021/10/30 11:48:45;;;;;;;;;2.67;2.67;;;;;;;;6192168;23;47220;-83
2021/10/30 11:51:11;;;;;;;;;5.00;4.00;;;;;;;;6192439;23;45303;-83
2021/10/30 11:53:40;;;;;;;;;3.00;3.00;;;;;;;;6191542;22;45310;-82
2021/10/30 11:59:18;;;;;;;;;2.67;2.67;;;;;;;;6196904;22;45231;-82
2021/10/30 12:01:44;;;;;;;;;2.00;2.00;;;;;;;;6196242;22;45488;-83
2021/10/30 12:04:20;;;;;;;;;3.00;2.67;;;;;;;;6191917;22;45379;-82
2021/10/30 12:07:02;;;;;;;;;3.33;3.33;;;;;;;;6194606;22;45240;-83
2021/10/30 12:09:27;;;;;;;;;3.67;3.67;;;;;;;;6194087;22;45952;-82
2021/10/30 12:11:56;;;;;;;;;3.67;3.67;;;;;;;;6164921;23;45873;-83
2021/10/30 12:14:29;;;;;;;;;4.25;3.50;;;;;;;;6165781;23;44729;-82
2021/10/30 12:16:56;;;;;;;;;5.00;5.00;;;;;;;;6194024;22;44810;-82
2021/10/30 12:19:24;;;;;;;;;3.00;3.00;;;;;;;;6167660;23;46610;-82
2021/10/30 12:22:00;;;;;;;;;6.00;5.00;;;;;;;;6194602;22;45292;-83
2021/10/30 12:27:28;;;;;;;;;4.00;4.00;;;;;;;;6195120;23;44776;-83
2021/10/30 12:29:53;;;;;;;;;4.50;4.50;;;;;;;;6193363;22;45259;-83
2021/10/30 12:32:22;;;;;;;;;7.00;5.00;;;;;;;;6166929;23;45324;-83
2021/10/30 12:34:53;;;;;;;;;6.75;6.00;;;;;;;;6169574;23;45784;-82
2021/10/30 12:37:26;;;;;;;;;4.25;4.25;;;;;;;;6171668;23;45308;-82
2021/10/30 12:42:53;;;;;;;;;5.75;5.75;;;;;;;;6201731;22;45283;-82
2021/10/30 12:45:38;;;;;;;;;5.00;5.00;;;;;;;;6227165;22;44933;-82
2021/10/30 12:48:17;;;;;;;;;4.25;4.25;;;;;;;;6198533;22;45539;-82
2021/10/30 12:50:53;;;;;;;;;5.00;4.25;;;;;;;;6199115;22;47232;-82
2021/10/30 12:53:22;;;;;;;;;5.75;5.75;;;;;;;;6199457;22;45752;-82
2021/10/30 12:56:00;;;;;;;;;3.00;3.00;;;;;;;;6198383;22;45331;-82
2021/10/30 12:59:00;;;;;;;;;;;;;;;;;;;;;
2021/10/30 13:04:11;;;;;;;;;5.00;4.50;;;;;;;;6223773;22;45368;-82
2021/10/30 13:06:38;;;;;;;;;5.00;4.50;;;;;;;;6224363;22;45387;-82
2021/10/30 13:09:05;;;;;;;;;4.25;4.25;;;;;;;;6223319;22;45379;-82
2021/10/30 13:11:30;;;;;;;;;4.00;4.00;;;;;;;;6196293;22;46841;-82
2021/10/30 13:13:56;;;;;;;;;6.00;5.75;;;;;;;;6224830;22;45322;-82
2021/10/30 13:16:21;;;;;;;;;4.50;4.50;;;;;;;;6226083;22;45371;-82
2021/10/30 13:18:49;;;;;;;;;5.00;4.00;;;;;;;;6198391;22;45529;-82
2021/10/30 13:30:43;;;;;;;;;3.00;3.00;;;;;;;;6159867;22;45383;-82
2021/10/30 13:33:11;;;;;;;;;2.00;2.00;;;;;;;;6163626;23;44958;-82
2021/10/30 13:35:36;;;;;;;;;4.00;4.00;;;;;;;;6138759;22;45305;-83
2021/10/30 13:38:02;;;;;;;;;4.00;4.00;;;;;;;;6160696;22;45027;-82
2021/10/30 13:40:27;;;;;;;;;3.50;3.50;;;;;;;;6161478;23;44869;-83
2021/10/30 13:42:52;;;;;;;;;4.00;3.00;;;;;;;;6136654;22;46503;-81
2021/10/30 13:45:18;;;;;;;;;5.25;5.00;;;;;;;;6177645;22;45321;-83
2021/10/30 13:47:43;;;;;;;;;3.25;3.25;;;;;;;;6221351;22;45574;-82
2021/10/30 13:50:08;;;;;;;;;4.50;4.50;;;;;;;;6221791;22;45382;-82
2021/10/30 13:52:34;;;;;;;;;4.00;3.00;;;;;;;;6195300;22;46526;-82
2021/10/30 13:54:59;;;;;;;;;6.00;4.25;;;;;;;;6195983;22;45367;-82
2021/10/30 13:57:25;;;;;;;;;2.00;2.00;;;;;;;;6197641;22;45413;-81
2021/10/30 13:59:50;;;;;;;;;2.75;2.75;;;;;;;;6223878;22;45379;-82
2021/10/30 14:02:32;;;;;;;;;2.00;2.00;;;;;;;;6224401;22;45398;-82
2021/10/30 14:04:57;;;;;;;;;3.75;3.75;;;;;;;;6197339;22;44749;-81
2021/10/30 14:10:19;;;;;;;;;1.75;1.75;;;;;;;;6222728;22;45487;-82
2021/10/30 14:12:56;;;;;;;;;4.25;4.25;;;;;;;;6222782;22;45316;-82
2021/10/30 14:15:22;;;;;;;;;3.50;3.00;;;;;;;;6198674;22;45457;-82
2021/10/30 14:17:49;;;;;;;;;3.00;3.00;;;;;;;;6199248;22;45195;-82
2021/10/30 14:20:17;;;;;;;;;7.00;4.00;;;;;;;;6225913;22;45451;-82
2021/10/30 14:22:42;;;;;;;;;4.75;4.00;;;;;;;;6226436;22;45324;-82
2021/10/30 14:25:14;;;;;;;;;2.50;2.25;;;;;;;;6198411;22;45278;-82
2021/10/30 14:27:42;;;;;;;;;3.00;3.00;;;;;;;;6199170;22;44868;-82
2021/10/30 14:33:15;;;;;;;;;4.00;4.00;;;;;;;;6227365;22;44828;-82
2021/10/30 14:35:40;;;;;;;;;3.50;3.50;;;;;;;;6226580;22;45338;-82
2021/10/30 14:38:08;;;;;;;;;3.75;3.00;;;;;;;;6200395;22;45417;-82
2021/10/30 14:40:33;;;;;;;;;3.00;3.00;;;;;;;;6200941;22;45441;-82
2021/10/30 14:42:59;;;;;;;;;2.75;2.75;;;;;;;;6199013;22;47704;-82
2021/10/30 14:45:25;;;;;;;;;4.00;2.00;;;;;;;;6200235;22;45401;-82
2021/10/30 14:47:53;;;;;;;;;2.25;2.25;;;;;;;;6197895;22;45355;-82
2021/10/30 14:50:22;;;;;;;;;3.00;3.00;;;;;;;;6224206;22;44713;-82
2021/10/30 14:52:50;;;;;;;;;4.75;3.00;;;;;;;;6223802;22;45455;-83
2021/10/30 14:55:59;;;;;;;;;;;;;;;;;;;;;
2021/10/30 14:58:25;;;;;;;;;4.25;4.25;;;;;;;;6223054;22;67957;-83
2021/10/30 15:00:51;;;;;;;;;4.25;4.25;;;;;;;;6224879;22;45331;-82
2021/10/30 15:03:16;;;;;;;;;5.00;3.50;;;;;;;;6198143;22;46823;-82
2021/10/30 15:05:44;;;;;;;;;2.00;2.00;;;;;;;;6223464;22;44692;-82
2021/10/30 15:08:15;;;;;;;;;3.00;3.00;;;;;;;;6195671;22;45259;-82
2021/10/30 15:11:19;;;;;;;;;;;;;;;;;;;;;
2021/10/30 15:13:51;;;;;;;;;1.50;1.50;;;;;;;;6225390;22;74511;-81
2021/10/30 15:16:20;;;;;;;;;1.00;1.00;;;;;;;;6226139;22;44721;-82
2021/10/30 15:18:45;;;;;;;;;2.00;2.00;;;;;;;;6199535;22;45456;-82
2021/10/30 15:21:19;;;;;;;;;0.00;0.00;;;;;;;;6226672;22;45334;-82
2021/10/30 15:26:48;;;;;;;;;2.75;2.75;;;;;;;;6223930;22;44797;-82
2021/10/30 15:29:14;;;;;;;;;2.50;2.50;;;;;;;;6199562;22;44650;-82
2021/10/30 15:31:42;;;;;;;;;1.00;1.00;;;;;;;;6198866;22;45302;-82
2021/10/30 15:34:09;;;;;;;;;2.00;2.00;;;;;;;;6224191;22;45779;-83
2021/10/30 15:37:17;;;;;;;;;2.00;2.00;;;;;;;;6195759;22;45727;-83
2021/10/30 15:39:35;;;;;;;;;1.00;1.00;;;;;;;;6221673;22;45518;-82
2021/10/30 15:42:01;;;;;;;;;2.00;2.00;;;;;;;;6224252;22;45362;-82